Time;durP1;ratioP1;P1;durP2;ratioP2;P2;SDS_P1;SDS_P2;PMS_P1;PMS_P2;Temp;Humidity;BMP_temperature;BMP_pressure;BME280_temperature;BME280_humidity;BME280_pressure;Samples;Min_cycle;Max_cycle;Signal;HPM_P1;HPM_P2
2021/11/10 00:00:32;;;;;;;72.60;44.50;;;;;;;2.51;100.00;100537.27;102309;1314;62211;-73
2021/11/10 00:03:10;;;;;;;78.70;43.80;;;;;;;2.50;100.00;100535.52;102305;1311;74432;-73
2021/11/10 00:05:38;;;;;;;78.80;44.10;;;;;;;2.49;100.00;100529.39;102350;1316;69219;-73
2021/11/10 00:08:05;;;;;;;68.60;42.50;;;;;;;2.45;100.00;100526.80;102127;1313;73876;-73
2021/11/10 00:10:32;;;;;;;70.80;44.90;;;;;;;2.38;100.00;100527.20;101882;1317;60618;-74
2021/11/10 00:13:18;;;;;;;79.40;44.60;;;;;;;2.33;100.00;100522.01;102413;1310;61402;-73
2021/11/10 00:15:47;;;;;;;74.90;42.20;;;;;;;2.26;100.00;100517.86;102160;1313;74626;-74
2021/11/10 00:18:15;;;;;;;66.60;41.30;;;;;;;2.18;100.00;100522.30;102336;1317;69971;-74
2021/11/10 00:20:43;;;;;;;82.90;41.80;;;;;;;2.10;100.00;100528.14;102436;1311;74404;-73
2021/11/10 00:23:10;;;;;;;72.80;41.40;;;;;;;2.06;100.00;100520.64;102382;1311;60529;-74
2021/11/10 00:25:37;;;;;;;75.30;42.60;;;;;;;2.01;100.00;100516.99;101869;1316;60709;-74
2021/11/10 00:28:04;;;;;;;71.40;41.00;;;;;;;1.97;100.00;100517.38;102306;1317;74033;-74
2021/11/10 00:30:31;;;;;;;73.00;42.70;;;;;;;1.93;100.00;100511.27;102355;1310;69696;-74
2021/11/10 00:32:57;;;;;;;63.00;39.80;;;;;;;1.88;100.00;100510.42;102267;1310;74537;-73
2021/11/10 00:35:24;;;;;;;58.80;40.40;;;;;;;1.82;100.00;100507.67;102258;1310;60542;-73
2021/11/10 00:37:51;;;;;;;65.00;41.30;;;;;;;1.77;100.00;100507.53;102294;1310;61215;-73
2021/11/10 00:40:18;;;;;;;65.70;41.30;;;;;;;1.73;100.00;100507.21;102294;1317;75329;-73
2021/11/10 00:42:45;;;;;;;67.60;41.70;;;;;;;1.69;100.00;100510.91;102344;1310;69319;-72
2021/11/10 00:45:12;;;;;;;75.20;42.50;;;;;;;1.66;100.00;100512.16;102250;1316;74205;-74
2021/11/10 00:47:39;;;;;;;73.60;44.20;;;;;;;1.64;100.00;100508.15;102299;1317;60514;-74
2021/11/10 00:50:07;;;;;;;86.10;51.00;;;;;;;1.63;100.00;100508.49;102269;1311;61146;-73
2021/11/10 00:52:33;;;;;;;107.80;60.50;;;;;;;1.60;100.00;100506.77;101662;1318;75757;-74
2021/11/10 00:55:00;;;;;;;87.50;48.50;;;;;;;1.60;100.00;100507.64;102296;1311;69461;-72
2021/11/10 00:57:27;;;;;;;103.10;55.10;;;;;;;1.58;100.00;100506.08;101867;1316;71541;-73
2021/11/10 00:59:54;;;;;;;114.00;58.80;;;;;;;1.57;100.00;100510.11;102313;1310;60540;-74
2021/11/10 01:02:20;;;;;;;272.40;108.90;;;;;;;1.59;100.00;100507.83;102347;1317;60519;-74
2021/11/10 01:04:47;;;;;;;125.30;62.00;;;;;;;1.60;100.00;100508.86;102236;1310;74739;-73
2021/11/10 01:07:14;;;;;;;118.30;58.00;;;;;;;1.61;100.00;100511.66;102380;1316;69678;-74
2021/11/10 01:09:44;;;;;;;86.40;50.20;;;;;;;1.62;100.00;100509.73;102352;1317;74559;-74
2021/11/10 01:12:13;;;;;;;91.40;44.80;;;;;;;1.62;100.00;100512.00;102245;1310;60532;-74
2021/11/10 01:14:41;;;;;;;86.70;43.50;;;;;;;1.62;100.00;100512.53;102283;1317;62429;-74
2021/11/10 01:17:08;;;;;;;90.40;43.50;;;;;;;1.64;100.00;100518.48;102294;1317;75595;-74
2021/11/10 01:19:37;;;;;;;67.00;41.70;;;;;;;1.66;100.00;100517.05;102301;1311;70299;-72
2021/11/10 01:22:04;;;;;;;65.80;39.50;;;;;;;1.64;100.00;100518.65;102389;1310;72555;-73
2021/11/10 01:24:32;;;;;;;64.80;40.60;;;;;;;1.63;100.00;100509.03;102344;1314;60551;-73
2021/11/10 01:26:59;;;;;;;65.00;38.60;;;;;;;1.60;100.00;100499.58;102350;1314;60840;-73
2021/11/10 01:29:26;;;;;;;66.20;38.50;;;;;;;1.59;100.00;100504.50;102249;1313;75695;-73
2021/11/10 01:31:53;;;;;;;68.40;39.50;;;;;;;1.58;100.00;100510.98;102028;1316;67733;-73
2021/11/10 01:34:20;;;;;;;68.40;39.20;;;;;;;1.57;100.00;100508.89;102282;1317;73487;-74
2021/11/10 01:36:47;;;;;;;59.60;36.90;;;;;;;1.54;100.00;100511.36;102128;1317;60555;-74
2021/11/10 01:39:14;;;;;;;62.80;37.90;;;;;;;1.53;100.00;100504.02;102205;1313;62243;-74
2021/11/10 01:41:47;;;;;;;58.90;37.10;;;;;;;1.53;100.00;100504.00;102238;1316;74402;-73
2021/11/10 01:44:23;;;;;;;59.60;35.90;;;;;;;1.51;100.00;100504.01;102272;1313;70253;-73
2021/11/10 01:46:55;;;;;;;61.50;38.30;;;;;;;1.51;100.00;100505.41;102342;1316;74490;-73
2021/11/10 01:49:22;;;;;;;60.20;35.20;;;;;;;1.49;100.00;100501.56;102357;1313;60535;-73
2021/11/10 01:51:53;;;;;;;58.40;36.50;;;;;;;1.47;100.00;100500.35;102262;1316;62417;-73
2021/11/10 01:54:22;;;;;;;60.80;35.00;;;;;;;1.46;100.00;100495.29;102287;1313;76174;-73
2021/11/10 01:56:49;;;;;;;62.70;35.10;;;;;;;1.44;100.00;100502.30;102101;1317;68919;-74
2021/11/10 01:59:32;;;;;;;60.90;35.30;;;;;;;1.42;100.00;100501.10;102394;1316;74599;-74
2021/11/10 02:02:01;;;;;;;62.40;36.60;;;;;;;1.43;100.00;100495.48;102747;1316;60392;-74
2021/11/10 02:04:30;;;;;;;59.30;36.60;;;;;;;1.43;100.00;100496.17;102542;1313;60569;-73
2021/11/10 02:06:58;;;;;;;54.70;31.80;;;;;;;1.42;100.00;100500.57;102678;1313;75727;-73
2021/11/10 02:09:26;;;;;;;57.80;33.90;;;;;;;1.39;100.00;100493.22;102613;1317;70625;-73
2021/11/10 02:11:54;;;;;;;72.70;32.60;;;;;;;1.39;100.00;100491.47;102611;1313;73505;-73
2021/11/10 02:14:23;;;;;;;73.30;35.40;;;;;;;1.37;100.00;100481.15;102669;1313;60911;-73
2021/11/10 02:16:51;;;;;;;57.90;33.30;;;;;;;1.33;100.00;100484.67;102676;1316;61506;-73
2021/11/10 02:19:18;;;;;;;73.90;38.70;;;;;;;1.31;100.00;100487.30;102936;1313;74988;-74
2021/11/10 02:21:49;;;;;;;71.00;36.80;;;;;;;1.31;100.00;100480.65;102693;1316;70606;-73
2021/11/10 02:24:18;;;;;;;70.30;35.90;;;;;;;1.29;100.00;100475.23;104120;1313;72683;-74
2021/11/10 02:26:46;;;;;;;61.20;34.70;;;;;;;1.28;100.00;100480.14;104292;1320;59758;-75
2021/11/10 02:29:15;;;;;;;65.80;34.60;;;;;;;1.26;100.00;100475.96;104576;1316;61118;-73
2021/11/10 02:31:44;;;;;;;68.70;35.30;;;;;;;1.25;100.00;100467.73;104285;1316;74715;-74
2021/11/10 02:34:11;;;;;;;73.50;34.80;;;;;;;1.26;100.00;100469.66;103075;1318;69185;-73
2021/11/10 02:36:38;;;;;;;71.30;33.30;;;;;;;1.26;100.00;100463.86;102351;1316;73647;-74
2021/11/10 02:39:15;;;;;;;70.30;32.60;;;;;;;1.27;100.00;100456.70;102335;1316;60539;-74
2021/11/10 02:41:46;;;;;;;55.60;31.50;;;;;;;1.25;100.00;100459.84;102042;1313;62061;-73
2021/11/10 02:44:18;;;;;;;58.70;31.20;;;;;;;1.21;100.00;100464.25;101938;1319;74641;-73
2021/11/10 02:46:47;;;;;;;50.50;30.30;;;;;;;1.15;100.00;100455.01;102113;1317;69497;-74
2021/11/10 02:49:14;;;;;;;46.90;30.10;;;;;;;1.11;100.00;100448.73;102252;1313;74559;-73
2021/11/10 02:52:04;;;;;;;56.80;31.50;;;;;;;1.05;100.00;100448.23;102238;1314;60635;-73
2021/11/10 02:54:34;;;;;;;50.50;32.80;;;;;;;1.01;100.00;100450.01;102233;1316;61997;-74
2021/11/10 02:57:04;;;;;;;48.00;29.60;;;;;;;0.99;100.00;100451.05;101871;1315;75785;-74
2021/11/10 02:59:31;;;;;;;55.20;31.40;;;;;;;0.99;100.00;100454.71;102208;1316;69532;-73
2021/11/10 03:01:59;;;;;;;62.20;31.70;;;;;;;0.99;100.00;100447.20;102161;1313;73471;-74
2021/11/10 03:04:32;;;;;;;60.60;33.80;;;;;;;0.99;100.00;100448.78;102254;1316;60654;-73
2021/11/10 03:06:59;;;;;;;70.20;35.20;;;;;;;0.99;100.00;100445.98;101882;1316;61238;-73
2021/11/10 03:09:28;;;;;;;57.40;31.20;;;;;;;0.99;100.00;100443.36;102233;1316;74721;-74
2021/11/10 03:11:58;;;;;;;65.70;31.80;;;;;;;0.98;100.00;100435.50;102247;1316;69719;-74
2021/11/10 03:14:30;;;;;;;49.50;28.50;;;;;;;0.92;100.00;100421.52;102252;1316;73001;-73
2021/11/10 03:16:58;;;;;;;42.90;25.80;;;;;;;0.88;100.00;100428.54;102239;1314;60615;-73
2021/11/10 03:19:25;;;;;;;45.00;26.20;;;;;;;0.83;100.00;100418.92;102196;1313;60871;-73
2021/11/10 03:21:52;;;;;;;40.00;26.90;;;;;;;0.77;100.00;100412.83;102250;1316;75108;-73
2021/11/10 03:24:19;;;;;;;44.20;25.70;;;;;;;0.74;100.00;100410.40;102191;1316;70543;-73
2021/11/10 03:26:46;;;;;;;43.40;26.60;;;;;;;0.71;100.00;100401.85;102236;1316;73739;-73
2021/11/10 03:29:13;;;;;;;40.20;27.40;;;;;;;0.68;100.00;100400.46;101881;1316;60614;-73
2021/11/10 03:31:40;;;;;;;35.40;25.50;;;;;;;0.66;100.00;100398.02;102242;1317;62388;-73
2021/11/10 03:34:09;;;;;;;37.60;27.50;;;;;;;0.61;100.00;100397.16;102227;1316;74615;-73
2021/11/10 03:36:37;;;;;;;38.60;27.40;;;;;;;0.59;100.00;100396.65;101202;1317;1003026;-74
2021/11/10 03:39:06;;;;;;;39.10;28.50;;;;;;;0.56;100.00;100391.05;101788;1317;72875;-72
2021/11/10 03:41:33;;;;;;;42.50;29.60;;;;;;;0.54;100.00;100392.65;102253;1316;60609;-73
2021/11/10 03:44:00;;;;;;;39.90;28.60;;;;;;;0.50;100.00;100385.13;102260;1316;62329;-73
2021/11/10 03:46:27;;;;;;;37.40;26.70;;;;;;;0.47;100.00;100379.55;102281;1316;74897;-73
2021/11/10 03:48:54;;;;;;;38.00;26.30;;;;;;;0.44;100.00;100375.89;102306;1316;70229;-73
2021/11/10 03:51:21;;;;;;;37.60;26.50;;;;;;;0.41;100.00;100373.97;102319;1314;74012;-73
2021/11/10 03:53:48;;;;;;;38.30;26.60;;;;;;;0.38;100.00;100377.66;102251;1317;60509;-74
2021/11/10 03:56:15;;;;;;;36.10;26.20;;;;;;;0.34;100.00;100379.60;102361;1316;61731;-74
2021/11/10 03:58:42;;;;;;;41.50;26.90;;;;;;;0.33;100.00;100381.35;102269;1316;74901;-74
2021/11/10 04:01:09;;;;;;;40.30;27.40;;;;;;;0.31;100.00;100389.40;102270;1312;70232;-74
2021/11/10 04:03:36;;;;;;;38.80;27.40;;;;;;;0.30;100.00;100395.70;102220;1317;74742;-74
2021/11/10 04:06:02;;;;;;;37.60;26.20;;;;;;;0.27;100.00;100396.40;102195;1313;60645;-74
2021/11/10 04:08:29;;;;;;;41.60;26.30;;;;;;;0.27;100.00;100390.46;101846;1316;60619;-73
2021/11/10 04:10:56;;;;;;;37.40;26.20;;;;;;;0.27;100.00;100385.39;102208;1317;75683;-73
2021/11/10 04:13:23;;;;;;;41.40;28.60;;;;;;;0.26;100.00;100385.38;102160;1316;70650;-73
2021/11/10 04:15:49;;;;;;;41.30;29.40;;;;;;;0.27;100.00;100384.86;102231;1317;73996;-73
2021/11/10 04:18:17;;;;;;;46.30;29.10;;;;;;;0.26;100.00;100382.77;102197;1316;60504;-74
2021/11/10 04:20:43;;;;;;;47.20;31.50;;;;;;;0.26;100.00;100391.85;102224;1316;61118;-74
2021/11/10 04:23:10;;;;;;;46.90;30.70;;;;;;;0.24;100.00;100389.58;102231;1313;75639;-73
2021/11/10 04:25:37;;;;;;;43.70;30.70;;;;;;;0.23;100.00;100397.27;102270;1316;70202;-73
2021/11/10 04:28:04;;;;;;;45.40;31.50;;;;;;;0.22;100.00;100396.77;101828;1316;73395;-73
2021/11/10 04:30:32;;;;;;;43.60;31.00;;;;;;;0.22;100.00;100397.98;102251;1316;60441;-73
2021/11/10 04:32:59;;;;;;;42.80;29.80;;;;;;;0.20;100.00;100397.27;102269;1314;61203;-73
2021/11/10 04:35:25;;;;;;;52.60;35.90;;;;;;;0.19;100.00;100401.48;102210;1316;74646;-73
2021/11/10 04:37:52;;;;;;;48.10;32.20;;;;;;;0.16;100.00;100393.63;102207;1317;69615;-74
2021/11/10 04:40:19;;;;;;;44.80;32.70;;;;;;;0.15;100.00;100395.55;102047;1313;226400;-73
2021/11/10 04:42:46;;;;;;;44.70;30.10;;;;;;;0.14;100.00;100398.88;102149;1316;60460;-74
2021/11/10 04:45:21;;;;;;;47.40;31.90;;;;;;;0.12;100.00;100399.94;102216;1317;61121;-74
2021/11/10 04:47:48;;;;;;;43.50;31.30;;;;;;;0.10;100.00;100395.38;101849;1316;74114;-73
2021/11/10 04:50:15;;;;;;;46.90;33.20;;;;;;;0.11;100.00;100393.98;102255;1317;68985;-73
2021/11/10 04:52:41;;;;;;;50.40;32.20;;;;;;;0.11;100.00;100394.52;101859;1317;73709;-73
2021/11/10 04:55:09;;;;;;;46.80;32.30;;;;;;;0.12;100.00;100390.66;101933;1317;60608;-74
2021/11/10 04:57:35;;;;;;;50.90;34.10;;;;;;;0.12;100.00;100390.48;102229;1317;61703;-73
2021/11/10 05:00:09;;;;;;;49.70;35.50;;;;;;;0.13;100.00;100389.42;102308;1316;75666;-74
2021/11/10 05:02:37;;;;;;;54.80;33.50;;;;;;;0.12;100.00;100393.28;101997;1316;70731;-74
2021/11/10 05:05:04;;;;;;;58.90;34.70;;;;;;;0.12;100.00;100392.59;102279;1314;73814;-73
2021/11/10 05:07:32;;;;;;;58.40;37.40;;;;;;;0.11;100.00;100394.70;101894;1315;60610;-73
2021/11/10 05:09:59;;;;;;;53.30;34.60;;;;;;;0.10;100.00;100390.84;100853;1316;1003856;-75
2021/11/10 05:12:26;;;;;;;47.00;34.40;;;;;;;0.06;100.00;100385.61;102296;1313;74737;-74
2021/11/10 05:14:55;;;;;;;50.40;34.40;;;;;;;0.03;100.00;100379.51;102219;1317;70479;-74
2021/11/10 05:17:26;;;;;;;58.10;35.70;;;;;;;-0.01;100.00;100374.08;102203;1317;74362;-74
2021/11/10 05:19:53;;;;;;;50.80;34.50;;;;;;;-0.05;100.00;100368.67;102288;1317;60810;-73
2021/11/10 05:22:20;;;;;;;55.90;37.00;;;;;;;-0.06;100.00;100377.06;102233;1316;60577;-73
2021/11/10 05:24:47;;;;;;;58.90;37.50;;;;;;;-0.08;100.00;100374.61;102187;1316;75660;-73
2021/11/10 05:27:14;;;;;;;55.00;40.20;;;;;;;-0.09;100.00;100375.14;102244;1314;69583;-73
2021/11/10 05:29:41;;;;;;;59.80;41.20;;;;;;;-0.10;100.00;100375.33;102220;1317;73455;-74
2021/11/10 05:32:07;;;;;;;49.90;36.00;;;;;;;-0.11;100.00;100382.14;102182;1316;60510;-74
2021/11/10 05:34:35;;;;;;;51.80;37.70;;;;;;;-0.11;100.00;100382.84;102292;1317;61370;-73
2021/11/10 05:37:02;;;;;;;53.60;36.80;;;;;;;-0.10;100.00;100382.85;102175;1316;75723;-73
2021/11/10 05:39:29;;;;;;;57.00;39.90;;;;;;;-0.11;100.00;100377.77;102202;1316;70463;-74
2021/11/10 05:41:56;;;;;;;57.20;40.10;;;;;;;-0.11;100.00;100373.58;102208;1314;73555;-74
2021/11/10 05:44:23;;;;;;;54.60;37.60;;;;;;;-0.11;100.00;100379.34;101869;1316;60990;-74
2021/11/10 05:46:50;;;;;;;65.80;38.20;;;;;;;-0.10;100.00;100375.69;102196;1314;61133;-74
2021/11/10 05:49:16;;;;;;;71.10;39.70;;;;;;;-0.08;100.00;100375.84;101876;1319;74160;-74
2021/11/10 05:51:43;;;;;;;72.80;37.30;;;;;;;-0.05;100.00;100375.67;102193;1313;69108;-73
2021/11/10 05:54:09;;;;;;;74.50;39.50;;;;;;;-0.02;100.00;100377.06;102173;1313;74469;-73
2021/11/10 05:56:39;;;;;;;67.80;38.80;;;;;;;-0.01;100.00;100379.67;102217;1317;60705;-73
2021/11/10 05:59:07;;;;;;;65.50;37.00;;;;;;;-0.01;100.00;100374.27;102277;1314;62246;-73
2021/11/10 06:01:35;;;;;;;69.70;40.30;;;;;;;-0.05;100.00;100373.73;102254;1317;75045;-73
2021/11/10 06:04:03;;;;;;;65.30;38.30;;;;;;;-0.05;100.00;100376.37;102231;1316;69537;-74
2021/11/10 06:06:29;;;;;;;57.30;35.50;;;;;;;-0.05;100.00;100378.30;102225;1313;74905;-74
2021/11/10 06:08:56;;;;;;;56.60;34.40;;;;;;;-0.06;100.00;100374.80;102234;1317;60856;-73
2021/11/10 06:11:23;;;;;;;53.70;33.90;;;;;;;-0.05;100.00;100378.64;102275;1316;62407;-74
2021/11/10 06:13:49;;;;;;;53.70;34.00;;;;;;;-0.06;100.00;100376.38;102187;1316;75626;-74
2021/11/10 06:16:16;;;;;;;52.80;33.60;;;;;;;-0.08;100.00;100370.79;102249;1313;69814;-74
2021/11/10 06:18:43;;;;;;;47.30;32.30;;;;;;;-0.12;100.00;100367.46;102235;1316;74390;-74
2021/11/10 06:21:09;;;;;;;45.90;33.10;;;;;;;-0.13;100.00;100373.59;102211;1316;60555;-74
2021/11/10 06:23:36;;;;;;;51.80;32.70;;;;;;;-0.12;100.00;100374.98;102257;1313;62128;-75
2021/11/10 06:26:03;;;;;;;52.60;33.50;;;;;;;-0.10;100.00;100375.33;101979;1314;74552;-73
2021/11/10 06:28:30;;;;;;;51.20;33.70;;;;;;;-0.09;100.00;100380.04;102290;1316;69513;-73
2021/11/10 06:30:57;;;;;;;54.00;33.60;;;;;;;-0.08;100.00;100384.92;102309;1314;74752;-73
2021/11/10 06:33:24;;;;;;;61.00;33.80;;;;;;;-0.04;100.00;100386.84;102233;1313;61414;-73
2021/11/10 06:35:50;;;;;;;55.50;34.70;;;;;;;0.01;100.00;100391.20;102217;1316;61329;-73
2021/11/10 06:38:17;;;;;;;51.90;34.30;;;;;;;0.06;100.00;100394.86;102153;1319;75236;-73
2021/11/10 06:40:44;;;;;;;58.20;36.30;;;;;;;0.14;100.00;100395.72;102147;1316;69637;-73
2021/11/10 06:43:10;;;;;;;49.60;36.10;;;;;;;0.23;100.00;100398.33;102204;1316;74511;-74
2021/11/10 06:45:37;;;;;;;48.30;36.40;;;;;;;0.31;100.00;100397.62;102103;1316;61311;-74
2021/11/10 06:48:04;;;;;;;48.50;36.10;;;;;;;0.35;100.00;100395.50;102238;1314;61374;-74
2021/11/10 06:50:31;;;;;;;57.40;38.10;;;;;;;0.41;100.00;100394.61;102183;1316;76805;-74
2021/11/10 06:52:57;;;;;;;48.90;34.00;;;;;;;0.49;100.00;100394.41;102274;1314;69620;-74
2021/11/10 06:55:24;;;;;;;43.10;32.10;;;;;;;0.57;100.00;100392.80;102176;1313;74527;-73
2021/11/10 06:57:51;;;;;;;46.10;33.80;;;;;;;0.61;100.00;100396.29;102219;1313;61319;-73
2021/11/10 07:00:18;;;;;;;47.00;37.10;;;;;;;0.68;100.00;100395.91;102194;1317;61486;-74
2021/11/10 07:02:45;;;;;;;45.40;34.10;;;;;;;0.79;100.00;100396.03;102216;1314;75579;-74
2021/11/10 07:05:11;;;;;;;47.40;34.60;;;;;;;0.90;100.00;100393.02;102219;1314;70975;-73
2021/11/10 07:07:38;;;;;;;46.10;34.20;;;;;;;1.00;100.00;100391.73;102236;1316;73443;-74
2021/11/10 07:10:06;;;;;;;46.50;35.20;;;;;;;1.08;100.00;100383.98;102218;1316;61422;-73
2021/11/10 07:12:33;;;;;;;46.00;34.70;;;;;;;1.15;100.00;100380.45;102230;1317;61304;-73
2021/11/10 07:15:00;;;;;;;48.40;36.40;;;;;;;1.26;100.00;100377.92;102177;1313;72449;-74
2021/11/10 07:17:27;;;;;;;45.40;33.00;;;;;;;1.34;100.00;100383.12;102225;1313;69549;-73
2021/11/10 07:19:54;;;;;;;49.40;37.30;;;;;;;1.40;100.00;100381.16;102253;1316;73415;-73
2021/11/10 07:22:21;;;;;;;56.30;38.10;;;;;;;1.47;100.00;100380.23;102221;1317;61329;-79
2021/11/10 07:24:47;;;;;;;55.10;40.80;;;;;;;1.53;100.00;100377.54;102636;1316;61655;-78
2021/11/10 07:27:14;;;;;;;55.30;40.30;;;;;;;1.58;100.00;100363.15;102389;1316;76549;-80
2021/11/10 07:29:41;;;;;;;50.80;37.90;;;;;;;1.61;100.00;100360.48;102444;1313;71449;-81
2021/11/10 07:32:08;;;;;;;52.40;37.80;;;;;;;1.66;100.00;100356.95;102432;1313;72952;-81
2021/11/10 07:34:35;;;;;;;50.50;36.70;;;;;;;1.72;100.00;100355.84;102413;1317;61376;-81
2021/11/10 07:37:02;;;;;;;50.50;36.00;;;;;;;1.77;100.00;100349.32;102443;1317;61264;-82
2021/11/10 07:39:31;;;;;;;47.10;34.40;;;;;;;1.83;100.00;100345.75;102204;1317;75281;-79
2021/11/10 07:41:58;;;;;;;45.90;35.50;;;;;;;1.87;100.00;100342.73;102432;1314;69624;-80
2021/11/10 07:44:25;;;;;;;49.20;38.60;;;;;;;1.87;100.00;100339.22;102384;1314;74611;-79
2021/11/10 07:47:06;;;;;;;56.10;41.10;;;;;;;1.89;100.00;100333.42;102379;1313;61333;-79
2021/11/10 07:49:33;;;;;;;57.50;44.00;;;;;;;1.91;100.00;100332.70;102337;1313;61672;-71
2021/11/10 07:52:00;;;;;;;51.40;40.60;;;;;;;1.96;100.00;100338.08;102398;1313;76009;-79
2021/11/10 07:54:27;;;;;;;47.80;37.60;;;;;;;1.98;100.00;100339.30;102426;1317;69909;-76
2021/11/10 07:56:54;;;;;;;47.30;36.30;;;;;;;2.00;100.00;100331.91;102310;1312;71619;-77
2021/11/10 07:59:20;;;;;;;43.80;34.80;;;;;;;2.04;100.00;100334.15;102376;1317;61293;-81
2021/11/10 08:01:47;;;;;;;41.50;32.50;;;;;;;2.10;100.00;100333.02;102493;1316;61334;-80
2021/11/10 08:04:14;;;;;;;41.10;31.70;;;;;;;2.16;100.00;100336.29;102487;1313;73622;-75
2021/11/10 08:06:40;;;;;;;42.00;31.90;;;;;;;2.21;100.00;100325.20;102437;1313;69508;-78
2021/11/10 08:09:07;;;;;;;41.80;32.90;;;;;;;2.29;100.00;100327.02;102580;1314;73319;-80
2021/11/10 08:11:33;;;;;;;42.70;35.00;;;;;;;2.33;100.00;100320.66;102706;1313;61443;-77
2021/11/10 08:14:00;;;;;;;41.50;34.00;;;;;;;2.36;99.95;100315.70;102744;1317;62670;-74
2021/11/10 08:16:27;;;;;;;44.60;34.10;;;;;;;2.43;99.99;100313.34;103037;1316;75576;-74
2021/11/10 08:18:53;;;;;;;41.80;35.60;;;;;;;2.53;100.00;100310.95;102724;1313;69652;-73
2021/11/10 08:21:20;;;;;;;46.70;35.50;;;;;;;2.62;100.00;100311.18;102845;1313;74600;-75
2021/11/10 08:23:47;;;;;;;48.40;35.70;;;;;;;2.72;100.00;100309.29;102872;1316;61346;-74
2021/11/10 08:26:14;;;;;;;43.10;35.00;;;;;;;2.82;100.00;100308.98;104905;1313;61435;-74
2021/11/10 08:28:40;;;;;;;41.10;34.20;;;;;;;2.95;100.00;100302.46;105237;1314;75477;-74
2021/11/10 08:31:07;;;;;;;47.30;32.60;;;;;;;3.08;100.00;100301.23;105400;1313;69487;-73
2021/11/10 08:33:34;;;;;;;40.70;31.70;;;;;;;3.19;100.00;100299.47;104779;1316;73454;-75
2021/11/10 08:36:00;;;;;;;44.20;32.80;;;;;;;3.30;100.00;100298.23;102349;1313;61450;-74
2021/11/10 08:38:29;;;;;;;41.00;33.30;;;;;;;3.38;100.00;100291.42;102574;1316;61374;-74
2021/11/10 08:40:58;;;;;;;44.90;35.00;;;;;;;3.47;100.00;100292.16;104636;1319;75539;-73
2021/11/10 08:43:25;;;;;;;43.20;33.00;;;;;;;3.58;100.00;100291.63;103596;1313;69523;-74
2021/11/10 08:45:54;;;;;;;47.60;36.30;;;;;;;3.65;100.00;100293.41;102360;1317;72437;-75
2021/11/10 08:48:23;;;;;;;48.10;35.60;;;;;;;3.73;100.00;100288.36;102413;1313;61345;-74
2021/11/10 08:50:50;;;;;;;48.90;35.60;;;;;;;3.82;100.00;100289.77;102421;1314;61846;-71
2021/11/10 08:53:19;;;;;;;43.40;33.70;;;;;;;3.90;100.00;100285.39;102007;1316;75167;-73
2021/11/10 08:55:47;;;;;;;46.50;37.10;;;;;;;3.99;100.00;100284.35;102357;1313;70323;-72
2021/11/10 08:58:15;;;;;;;45.80;36.70;;;;;;;4.07;100.00;100286.84;102231;1314;74872;-72
2021/11/10 09:00:43;;;;;;;48.40;38.20;;;;;;;4.18;100.00;100290.66;102255;1313;61343;-73
2021/11/10 09:03:09;;;;;;;46.70;36.10;;;;;;;4.27;99.99;100290.13;102344;1314;63152;-72
2021/11/10 09:05:36;;;;;;;44.10;36.10;;;;;;;4.33;99.97;100287.00;101986;1317;74877;-72
2021/11/10 09:08:03;;;;;;;41.10;36.10;;;;;;;4.41;99.89;100284.55;102259;1313;68720;-72
2021/11/10 09:10:33;;;;;;;44.90;37.70;;;;;;;4.50;99.86;100285.27;102248;1314;74501;-73
2021/11/10 09:13:01;;;;;;;46.00;36.90;;;;;;;4.57;99.92;100280.16;102261;1314;61419;-71
2021/11/10 09:15:31;;;;;;;46.30;36.50;;;;;;;4.70;99.92;100274.62;102382;1313;61316;-73
2021/11/10 09:18:03;;;;;;;45.40;36.00;;;;;;;4.82;99.99;100266.59;102267;1314;74105;-72
2021/11/10 09:20:32;;;;;;;41.80;36.10;;;;;;;4.96;100.00;100259.39;102245;1316;69015;-72
2021/11/10 09:22:59;;;;;;;45.10;36.10;;;;;;;5.09;100.00;100263.67;102229;1314;74856;-73
2021/11/10 09:25:28;;;;;;;39.60;34.10;;;;;;;5.20;99.86;100257.23;101856;1317;61315;-72
2021/11/10 09:27:57;;;;;;;40.90;34.10;;;;;;;5.29;99.71;100256.83;101900;1313;61403;-73
2021/11/10 09:30:26;;;;;;;39.60;33.20;;;;;;;5.39;99.53;100254.98;101898;1319;74615;-72
2021/11/10 09:32:54;;;;;;;36.20;31.50;;;;;;;5.49;99.42;100249.63;102274;1314;67639;-72
2021/11/10 09:35:23;;;;;;;40.80;32.70;;;;;;;5.61;99.37;100246.66;102256;1313;74632;-71
2021/11/10 09:37:54;;;;;;;39.00;32.50;;;;;;;5.73;99.20;100239.27;102282;1313;61383;-71
2021/11/10 09:40:25;;;;;;;38.20;31.50;;;;;;;5.85;99.12;100239.30;102245;1317;61401;-72
2021/11/10 09:42:52;;;;;;;39.20;31.60;;;;;;;5.97;99.00;100246.42;101895;1319;76486;-72
2021/11/10 09:45:22;;;;;;;34.60;29.70;;;;;;;6.09;98.84;100241.84;102240;1313;69515;-72
2021/11/10 09:47:49;;;;;;;39.30;30.10;;;;;;;6.19;98.69;100242.45;101877;1313;73340;-73
2021/11/10 09:50:23;;;;;;;38.20;32.60;;;;;;;6.29;98.55;100238.80;102216;1313;61507;-72
2021/11/10 09:52:51;;;;;;;39.60;31.00;;;;;;;6.39;98.54;100235.34;102232;1316;61435;-72
2021/11/10 09:55:22;;;;;;;42.50;31.90;;;;;;;6.48;98.35;100231.70;102281;1313;76469;-72
2021/11/10 09:57:51;;;;;;;41.90;31.50;;;;;;;6.57;98.44;100227.72;102292;1313;69796;-72
2021/11/10 10:00:27;;;;;;;39.90;30.30;;;;;;;6.64;98.05;100225.56;101860;1316;73702;-72
2021/11/10 10:02:54;;;;;;;36.70;28.30;;;;;;;6.70;97.82;100217.08;101874;1313;61487;-71
2021/11/10 10:05:26;;;;;;;35.00;29.20;;;;;;;6.75;97.62;100215.13;102212;1316;61240;-72
2021/11/10 10:07:56;;;;;;;33.00;28.60;;;;;;;6.81;97.37;100212.84;101927;1319;74464;-72
2021/11/10 10:10:25;;;;;;;35.00;29.10;;;;;;;6.90;97.22;100210.26;102341;1313;69806;-72
2021/11/10 10:12:54;;;;;;;34.70;29.00;;;;;;;6.96;97.25;100203.54;102263;1316;73226;-72
2021/11/10 10:15:23;;;;;;;30.50;25.30;;;;;;;7.01;96.97;100199.66;101833;1319;61424;-72
2021/11/10 10:17:57;;;;;;;31.80;26.50;;;;;;;7.05;96.64;100201.98;101945;1316;61883;-72
2021/11/10 10:20:26;;;;;;;30.70;26.40;;;;;;;7.12;96.49;100199.30;102231;1314;76490;-73
2021/11/10 10:22:54;;;;;;;31.70;25.90;;;;;;;7.18;96.36;100192.55;102219;1313;69509;-71
2021/11/10 10:25:34;;;;;;;31.40;26.00;;;;;;;7.27;95.96;100191.70;102276;1313;74310;-72
2021/11/10 10:28:01;;;;;;;33.10;26.70;;;;;;;7.35;95.86;100190.56;102251;1314;61303;-72
2021/11/10 10:30:38;;;;;;;33.00;26.40;;;;;;;7.43;95.68;100188.49;102231;1316;62147;-71
2021/11/10 10:33:21;;;;;;;35.60;26.20;;;;;;;7.53;95.39;100184.98;102229;1316;75580;-71
2021/11/10 10:36:07;;;;;;;35.00;27.40;;;;;;;7.59;95.17;100175.38;102253;1313;69443;-72
2021/11/10 10:38:41;;;;;;;31.30;26.20;;;;;;;7.72;95.32;100168.38;102317;1317;74020;-72
2021/11/10 10:41:10;;;;;;;28.10;23.10;;;;;;;7.84;95.19;100164.05;101975;1313;61470;-72
2021/11/10 10:43:42;;;;;;;30.50;24.50;;;;;;;7.95;94.86;100159.59;102323;1310;61630;-72
2021/11/10 10:46:10;;;;;;;27.60;23.40;;;;;;;8.03;94.56;100152.37;102229;1310;76840;-72
2021/11/10 10:48:38;;;;;;;29.40;24.40;;;;;;;8.11;94.34;100154.36;102278;1310;70671;-72
2021/11/10 10:51:08;;;;;;;27.40;23.20;;;;;;;8.21;94.35;100148.14;102252;1310;72200;-73
2021/11/10 10:53:34;;;;;;;29.40;23.00;;;;;;;8.29;94.07;100140.74;102292;1316;61365;-72
2021/11/10 10:56:16;;;;;;;29.40;23.00;;;;;;;8.37;93.97;100139.19;102251;1314;61409;-72
2021/11/10 10:58:43;;;;;;;28.70;22.90;;;;;;;8.43;93.49;100135.64;101904;1314;75641;-72
2021/11/10 11:01:48;;;;;;;27.50;21.10;;;;;;;8.47;93.61;100132.98;102274;1310;69365;-72
2021/11/10 11:04:21;;;;;;;26.60;20.20;;;;;;;8.52;92.78;100134.89;101272;1322;73711;-71
2021/11/10 11:06:57;;;;;;;23.60;20.40;;;;;;;8.58;92.68;100137.67;101276;1322;61643;-74